createdAt,value
2019-03-23T00:01:53.703Z,66.29
2019-03-23T00:04:21.961Z,67.88
2019-03-23T00:06:50.243Z,69.94
2019-03-23T00:09:19.080Z,69.31
2019-03-23T00:11:47.362Z,69.02
2019-03-23T00:14:15.624Z,69.61
2019-03-23T00:16:43.908Z,69.53
2019-03-23T00:19:12.167Z,70.88
2019-03-23T00:21:40.447Z,71.74
2019-03-23T00:24:08.711Z,72.21
2019-03-23T00:26:36.986Z,71.36
2019-03-23T00:29:05.243Z,71.97
2019-03-23T00:31:33.522Z,71.15
2019-03-23T00:34:01.778Z,71.77
2019-03-23T00:36:30.062Z,71.59
2019-03-23T00:38:58.679Z,71.70
2019-03-23T00:41:26.954Z,72.44
2019-03-23T00:43:55.211Z,73.33
2019-03-23T00:46:23.490Z,72.94
2019-03-23T00:48:51.747Z,72.66
2019-03-23T00:51:21.088Z,71.60
2019-03-23T00:53:50.019Z,71.64
2019-03-23T00:56:18.310Z,73.51
2019-03-23T00:58:46.607Z,74.07
2019-03-23T01:01:15.059Z,74.88
2019-03-23T01:03:43.338Z,74.87
2019-03-23T01:06:12.385Z,74.93
2019-03-23T01:08:41.314Z,74.53
2019-03-23T01:11:09.595Z,75.16
2019-03-23T01:13:37.855Z,75.47
2019-03-23T01:16:06.110Z,75.12
2019-03-23T01:18:35.063Z,74.54
2019-03-23T01:21:03.593Z,74.57
2019-03-23T01:23:32.633Z,73.23
2019-03-23T01:26:00.919Z,73.40
2019-03-23T01:28:29.168Z,73.69
2019-03-23T01:30:57.990Z,73.76
2019-03-23T01:33:26.265Z,74.78
2019-03-23T01:35:54.517Z,73.90
2019-03-23T01:38:23.365Z,73.79
2019-03-23T01:40:51.619Z,74.41
2019-03-23T01:43:20.666Z,74.19
2019-03-23T01:45:49.487Z,74.62
2019-03-23T01:48:17.772Z,74.57
2019-03-23T01:50:46.019Z,74.51
2019-03-23T01:53:14.578Z,73.71
2019-03-23T01:55:42.829Z,74.18
2019-03-23T01:58:11.106Z,74.75
2019-03-23T02:00:39.357Z,74.48
2019-03-23T02:03:07.632Z,74.24
2019-03-23T02:05:35.886Z,74.30
2019-03-23T02:08:04.162Z,74.31
2019-03-23T02:10:32.417Z,74.31
2019-03-23T02:13:00.691Z,74.46
2019-03-23T02:15:29.281Z,74.34
2019-03-23T02:17:58.324Z,73.98
2019-03-23T02:20:26.581Z,74.64
2019-03-23T02:22:54.839Z,74.58
2019-03-23T02:25:23.087Z,74.24
2019-03-23T02:27:51.361Z,75.03
2019-03-23T02:30:20.691Z,75.62
2019-03-23T02:32:49.017Z,74.62
2019-03-23T02:35:17.291Z,73.75
2019-03-23T02:37:45.569Z,74.09
2019-03-23T02:40:13.813Z,73.59
2019-03-23T02:42:42.852Z,74.72
2019-03-23T02:45:12.144Z,73.82
2019-03-23T02:47:40.512Z,73.45
2019-03-23T02:50:10.059Z,73.45
2019-03-23T02:52:38.400Z,74.33
2019-03-23T02:55:08.249Z,74.85
2019-03-23T02:57:36.535Z,74.13
2019-03-23T03:00:07.972Z,73.97
2019-03-23T03:02:36.245Z,73.05
2019-03-23T03:05:06.837Z,73.39
2019-03-23T03:07:42.102Z,72.78
2019-03-23T03:10:10.091Z,73.42
2019-03-23T03:12:38.938Z,72.72
2019-03-23T03:15:08.433Z,73.16
2019-03-23T03:17:36.706Z,73.47
2019-03-23T03:20:09.481Z,74.28
2019-03-23T03:22:37.750Z,74.57
2019-03-23T03:25:07.246Z,74.30
2019-03-23T03:27:35.555Z,73.68
2019-03-23T03:30:05.145Z,73.39
2019-03-23T03:32:33.425Z,74.21
2019-03-23T03:35:01.785Z,73.07
2019-03-23T03:37:30.029Z,74.39
2019-03-23T03:39:58.285Z,74.24
2019-03-23T03:42:26.566Z,71.83
2019-03-23T03:44:54.819Z,70.28
2019-03-23T03:47:23.104Z,71.62
2019-03-23T03:49:51.350Z,71.43
2019-03-23T03:52:19.627Z,72.10
2019-03-23T03:54:47.872Z,72.83
2019-03-23T03:57:16.144Z,71.16
2019-03-23T03:59:44.386Z,70.00
2019-03-23T04:02:12.662Z,69.16
2019-03-23T04:04:40.924Z,70.10
2019-03-23T04:07:09.783Z,70.37
2019-03-23T04:09:40.447Z,68.46
2019-03-23T04:12:08.871Z,68.39
2019-03-23T04:14:37.121Z,70.30
2019-03-23T04:17:05.386Z,70.21
2019-03-23T04:19:33.651Z,71.04
2019-03-23T04:22:01.904Z,70.69
2019-03-23T04:24:30.193Z,71.93
2019-03-23T04:26:58.716Z,72.28
2019-03-23T04:29:27.755Z,73.15
2019-03-23T04:31:55.996Z,75.17
2019-03-23T04:34:24.276Z,75.04
2019-03-23T04:36:52.524Z,75.62
2019-03-23T04:39:20.838Z,76.41
2019-03-23T04:41:49.090Z,77.53
2019-03-23T04:44:17.365Z,77.79
2019-03-23T04:46:45.617Z,78.21
2019-03-23T04:49:13.892Z,77.92
2019-03-23T04:51:42.150Z,76.99
2019-03-23T04:54:10.433Z,78.07
2019-03-23T04:56:38.687Z,78.72
2019-03-23T04:59:06.971Z,78.04
2019-03-23T05:01:35.998Z,78.97
2019-03-23T05:04:04.274Z,77.99
2019-03-23T05:06:32.529Z,78.96
2019-03-23T05:09:00.811Z,80.61
2019-03-23T05:11:29.069Z,81.21
2019-03-23T05:13:57.344Z,81.44
2019-03-23T05:16:25.608Z,81.00
2019-03-23T05:18:53.894Z,82.96
2019-03-23T05:21:22.924Z,82.60
2019-03-23T05:23:51.202Z,81.73
2019-03-23T05:26:19.463Z,81.51
2019-03-23T05:28:47.742Z,82.27
2019-03-23T05:31:16.057Z,82.43
2019-03-23T05:33:44.344Z,82.98
2019-03-23T05:36:12.605Z,83.06
2019-03-23T05:38:44.561Z,83.24
2019-03-23T05:41:11.438Z,83.75
2019-03-23T05:43:39.726Z,82.01
2019-03-23T05:46:07.986Z,81.69
2019-03-23T05:48:36.832Z,81.21
2019-03-23T05:51:05.661Z,81.13
2019-03-23T05:53:33.937Z,81.54
2019-03-23T05:56:02.193Z,81.82
2019-03-23T05:58:30.470Z,81.93
2019-03-23T06:01:00.065Z,82.24
2019-03-23T06:03:28.346Z,82.15
2019-03-23T06:05:56.601Z,81.93
2019-03-23T06:08:24.896Z,82.68
2019-03-23T06:10:53.143Z,82.60
2019-03-23T06:13:21.429Z,82.65
2019-03-23T06:15:50.247Z,82.14
2019-03-23T06:18:18.526Z,82.07
2019-03-23T06:20:46.793Z,81.22
2019-03-23T06:23:15.080Z,80.46
2019-03-23T06:25:43.907Z,80.56
2019-03-23T06:28:12.188Z,79.61
2019-03-23T06:30:41.012Z,79.35
2019-03-23T06:33:10.066Z,79.03
2019-03-23T06:35:38.323Z,78.75
2019-03-23T06:38:06.611Z,79.50
2019-03-23T06:40:34.870Z,78.09
2019-03-23T06:43:03.922Z,78.07
2019-03-23T06:45:32.180Z,79.04
2019-03-23T06:48:00.462Z,78.91
2019-03-23T06:50:28.719Z,79.53
2019-03-23T06:52:57.003Z,79.90
2019-03-23T06:55:25.257Z,80.32
2019-03-23T06:57:53.584Z,79.82
2019-03-23T07:00:21.803Z,80.41
2019-03-23T07:02:50.056Z,81.32
2019-03-23T07:05:18.343Z,81.37
2019-03-23T07:07:47.167Z,83.15
2019-03-23T07:10:15.614Z,82.22
2019-03-23T07:12:43.872Z,83.02
2019-03-23T07:15:19.989Z,84.20
2019-03-23T07:17:42.305Z,83.74
2019-03-23T07:20:12.521Z,83.78
2019-03-23T07:22:40.778Z,83.88
2019-03-23T07:25:10.697Z,84.47
2019-03-23T07:27:38.952Z,85.04
2019-03-23T07:30:17.752Z,85.56
2019-03-23T07:32:46.008Z,85.53
2019-03-23T07:35:14.726Z,86.37
2019-03-23T07:37:43.012Z,87.49
2019-03-23T07:40:12.249Z,87.95
2019-03-23T07:42:40.512Z,88.40
2019-03-23T07:45:12.051Z,88.60
2019-03-23T07:47:40.305Z,88.78
2019-03-23T07:50:10.429Z,88.61
2019-03-23T07:52:38.693Z,88.89
2019-03-23T07:55:14.960Z,89.05
2019-03-23T07:57:43.381Z,88.58
2019-03-23T08:00:22.122Z,88.34
2019-03-23T08:02:50.452Z,88.30
2019-03-23T08:05:18.735Z,88.36
2019-03-23T08:07:46.989Z,88.21
2019-03-23T08:10:31.622Z,87.93
2019-03-23T08:13:00.181Z,88.46
2019-03-23T08:15:28.451Z,88.17
2019-03-23T08:17:56.708Z,88.61
2019-03-23T08:20:25.463Z,88.20
2019-03-23T08:22:54.465Z,88.28
2019-03-23T08:25:22.749Z,87.87
2019-03-23T08:27:51.012Z,88.14
2019-03-23T08:30:19.304Z,88.44
2019-03-23T08:32:47.564Z,88.45
2019-03-23T08:35:16.423Z,87.82
2019-03-23T08:37:44.678Z,87.74
2019-03-23T08:40:13.330Z,87.15
2019-03-23T08:42:41.596Z,86.55
2019-03-23T08:45:09.879Z,85.89
2019-03-23T08:47:38.144Z,85.93
2019-03-23T08:50:06.995Z,86.90
2019-03-23T08:52:35.255Z,87.00
2019-03-23T08:55:03.704Z,86.55
2019-03-23T08:57:31.966Z,86.86
2019-03-23T09:00:00.327Z,86.45
2019-03-23T09:02:28.583Z,86.56
2019-03-23T09:04:56.872Z,87.09
2019-03-23T09:07:25.129Z,87.51
2019-03-23T09:09:59.110Z,87.46
2019-03-23T09:12:23.415Z,86.72
2019-03-23T09:14:51.700Z,86.94
2019-03-23T09:17:19.953Z,86.37
2019-03-23T09:19:48.577Z,86.32
2019-03-23T09:22:16.840Z,86.37
2019-03-23T09:24:45.433Z,86.55
2019-03-23T09:27:13.691Z,86.86
2019-03-23T09:29:41.983Z,87.20
2019-03-23T09:32:10.249Z,86.85
2019-03-23T09:34:38.571Z,86.31
2019-03-23T09:37:06.826Z,85.67
2019-03-23T09:39:35.083Z,85.65
2019-03-23T09:42:03.367Z,86.27
2019-03-23T09:44:31.637Z,85.39
2019-03-23T09:47:00.480Z,86.30
2019-03-23T09:49:30.079Z,87.12
2019-03-23T09:51:58.368Z,87.11
2019-03-23T09:54:27.394Z,87.33
2019-03-23T09:56:56.919Z,87.50
2019-03-23T09:59:25.186Z,87.09
2019-03-23T10:01:53.486Z,86.36
2019-03-23T10:04:21.752Z,86.34
2019-03-23T10:06:50.054Z,86.98
2019-03-23T10:09:18.317Z,87.28
2019-03-23T10:11:46.598Z,87.13
2019-03-23T10:14:14.854Z,87.39
2019-03-23T10:16:43.712Z,88.06
2019-03-23T10:19:12.862Z,87.28
2019-03-23T10:21:41.141Z,86.71
2019-03-23T10:24:09.405Z,86.56
2019-03-23T10:26:37.690Z,87.25
2019-03-23T10:29:05.953Z,87.18
2019-03-23T10:31:34.237Z,85.92
2019-03-23T10:34:02.498Z,86.60
2019-03-23T10:36:30.785Z,86.14
2019-03-23T10:38:59.776Z,86.07
2019-03-23T10:41:28.065Z,85.70
2019-03-23T10:43:56.327Z,84.98
2019-03-23T10:46:25.175Z,84.79
2019-03-23T10:48:53.551Z,84.01
2019-03-23T10:51:22.409Z,83.16
2019-03-23T10:53:51.440Z,83.90
2019-03-23T10:56:19.725Z,83.03
2019-03-23T10:58:47.988Z,83.71
2019-03-23T11:01:16.276Z,83.39
2019-03-23T11:03:44.534Z,82.39
2019-03-23T11:06:12.822Z,82.39
2019-03-23T11:08:41.853Z,83.24
2019-03-23T11:11:10.135Z,81.35
2019-03-23T11:13:39.167Z,82.30
2019-03-23T11:16:07.449Z,80.47
2019-03-23T11:18:37.730Z,81.75
2019-03-23T11:21:06.045Z,82.57
2019-03-23T11:23:34.302Z,81.82
2019-03-23T11:26:03.154Z,82.53
2019-03-23T11:28:31.437Z,81.37
2019-03-23T11:30:59.849Z,81.71
2019-03-23T11:33:28.456Z,82.34
2019-03-23T11:35:58.037Z,82.50
2019-03-23T11:38:26.592Z,82.93
2019-03-23T11:40:55.349Z,82.39
2019-03-23T11:43:23.719Z,82.13
2019-03-23T11:45:52.656Z,80.58
2019-03-23T11:48:21.556Z,81.13
2019-03-23T11:50:49.770Z,82.35
2019-03-23T11:53:18.054Z,80.06
2019-03-23T11:55:46.317Z,80.47
2019-03-23T11:58:14.818Z,80.45
2019-03-23T12:00:43.074Z,79.40
2019-03-23T12:03:11.349Z,80.31
2019-03-23T12:05:39.978Z,78.30
2019-03-23T12:08:08.265Z,78.26
2019-03-23T12:10:36.518Z,79.10
2019-03-23T12:13:04.805Z,77.28
2019-03-23T12:15:33.063Z,80.62
2019-03-23T12:18:02.120Z,77.10
2019-03-23T12:20:30.405Z,76.25
2019-03-23T12:22:59.503Z,76.25
2019-03-23T12:25:27.717Z,76.16
2019-03-23T12:27:56.575Z,75.59
2019-03-23T12:30:25.609Z,74.61
2019-03-23T12:32:53.891Z,75.09
2019-03-23T12:35:22.622Z,75.09
2019-03-23T12:37:50.898Z,74.71
2019-03-23T12:40:19.161Z,75.88
2019-03-23T12:42:47.436Z,74.50
2019-03-23T12:45:15.861Z,74.45
2019-03-23T12:47:44.144Z,75.05
2019-03-23T12:50:12.393Z,76.21
2019-03-23T12:52:40.681Z,74.11
2019-03-23T12:55:09.306Z,74.50
2019-03-23T12:57:37.593Z,73.72
2019-03-23T13:00:09.104Z,73.97
2019-03-23T13:02:37.459Z,72.88
2019-03-23T13:05:06.785Z,71.21
2019-03-23T13:07:36.416Z,71.47
2019-03-23T13:10:06.219Z,71.57
2019-03-23T13:12:34.505Z,69.89
2019-03-23T13:15:02.842Z,69.89
2019-03-23T13:17:31.132Z,69.82
2019-03-23T13:19:59.457Z,71.04
2019-03-23T13:22:27.757Z,68.79
2019-03-23T13:24:56.011Z,68.39
2019-03-23T13:27:24.295Z,68.10
2019-03-23T13:29:52.553Z,67.37
2019-03-23T13:32:20.838Z,66.46
2019-03-23T13:34:49.097Z,66.58
2019-03-23T13:37:17.375Z,67.74
2019-03-23T13:39:45.636Z,68.52
2019-03-23T13:42:13.896Z,69.89
2019-03-23T13:44:42.180Z,67.29
2019-03-23T13:47:11.311Z,66.91
2019-03-23T13:49:39.590Z,67.71
2019-03-23T13:52:07.851Z,63.75
2019-03-23T13:54:36.135Z,63.64
2019-03-23T13:57:04.466Z,65.10
2019-03-23T13:59:32.748Z,64.40
2019-03-23T14:02:01.006Z,67.48
2019-03-23T14:04:29.295Z,69.31
2019-03-23T14:06:57.566Z,66.41
2019-03-23T14:09:26.877Z,67.80
2019-03-23T14:11:55.925Z,66.68
2019-03-23T14:14:24.197Z,67.40
2019-03-23T14:16:52.460Z,65.79
2019-03-23T14:19:20.749Z,66.51
2019-03-23T14:21:49.021Z,66.63
2019-03-23T14:24:17.298Z,66.30
2019-03-23T14:26:45.557Z,67.43
2019-03-23T14:29:13.843Z,68.20
2019-03-23T14:31:42.103Z,69.74
2019-03-23T14:34:10.389Z,68.25
2019-03-23T14:36:38.652Z,69.09
2019-03-23T14:39:07.204Z,69.31
2019-03-23T14:41:35.467Z,68.20
2019-03-23T14:44:03.746Z,69.56
2019-03-23T14:46:32.009Z,68.93
2019-03-23T14:49:01.881Z,68.86
2019-03-23T14:51:30.323Z,68.82
2019-03-23T14:53:58.609Z,67.34
2019-03-23T14:56:31.475Z,67.85
2019-03-23T14:58:57.455Z,68.09
2019-03-23T15:01:25.707Z,68.78
2019-03-23T15:03:53.993Z,68.95
2019-03-23T15:06:23.024Z,70.01
2019-03-23T15:08:51.308Z,70.29
2019-03-23T15:11:19.813Z,70.13
2019-03-23T15:13:48.094Z,71.50
2019-03-23T15:16:17.034Z,70.95
2019-03-23T15:18:45.315Z,71.68
2019-03-23T15:21:14.146Z,70.73
2019-03-23T15:23:42.430Z,70.50
2019-03-23T15:26:10.700Z,70.68
2019-03-23T15:28:38.958Z,72.02
2019-03-23T15:31:07.234Z,72.71
2019-03-23T15:33:35.489Z,71.33
2019-03-23T15:36:03.779Z,70.89
2019-03-23T15:38:32.402Z,72.39
2019-03-23T15:41:00.678Z,72.20
2019-03-23T15:43:29.015Z,72.37
2019-03-23T15:45:57.296Z,72.76
2019-03-23T15:48:25.558Z,71.28
2019-03-23T15:50:54.212Z,73.26
2019-03-23T15:53:22.470Z,71.53
2019-03-23T15:55:50.750Z,72.73
2019-03-23T15:58:19.086Z,72.46
2019-03-23T16:00:47.367Z,72.46
2019-03-23T16:03:15.627Z,73.00
2019-03-23T16:05:43.905Z,73.63
2019-03-23T16:08:12.162Z,72.39
2019-03-23T16:10:41.212Z,72.75
2019-03-23T16:13:09.469Z,72.91
2019-03-23T16:15:37.756Z,73.48
2019-03-23T16:18:06.015Z,73.73
2019-03-23T16:20:34.301Z,73.20
2019-03-23T16:23:02.566Z,73.67
2019-03-23T16:25:31.435Z,74.16
2019-03-23T16:27:59.677Z,74.39
2019-03-23T16:30:31.897Z,73.28
2019-03-23T16:33:00.157Z,73.98
2019-03-23T16:35:29.008Z,73.91
2019-03-23T16:37:57.932Z,74.70
2019-03-23T16:40:26.210Z,75.42
2019-03-23T16:42:55.038Z,75.16
2019-03-23T16:45:23.314Z,74.60
2019-03-23T16:47:51.578Z,75.73
2019-03-23T16:50:19.859Z,74.73
2019-03-23T16:52:48.114Z,75.94
2019-03-23T16:55:16.393Z,76.20
2019-03-23T16:57:44.650Z,75.27
2019-03-23T17:00:14.173Z,75.63
2019-03-23T17:02:42.431Z,75.00
2019-03-23T17:05:10.714Z,75.53
2019-03-23T17:07:38.970Z,76.65
2019-03-23T17:10:07.250Z,75.69
2019-03-23T17:12:36.349Z,76.36
2019-03-23T17:15:06.734Z,76.59
2019-03-23T17:17:34.424Z,76.94
2019-03-23T17:20:02.698Z,76.25
2019-03-23T17:22:31.534Z,77.07
2019-03-23T17:24:59.792Z,76.94
2019-03-23T17:27:28.076Z,76.70
2019-03-23T17:29:57.181Z,76.92
2019-03-23T17:32:25.466Z,78.23
2019-03-23T17:34:55.062Z,77.54
2019-03-23T17:37:23.341Z,77.70
2019-03-23T17:39:51.602Z,77.83
2019-03-23T17:42:19.880Z,78.45
2019-03-23T17:44:48.910Z,78.94
2019-03-23T17:47:17.187Z,79.72
2019-03-23T17:49:45.454Z,79.12
2019-03-23T17:52:14.304Z,80.08
2019-03-23T17:54:43.345Z,80.12
2019-03-23T17:57:11.613Z,80.08
2019-03-23T17:59:39.888Z,81.10
2019-03-23T18:02:08.162Z,81.68
2019-03-23T18:04:36.424Z,81.61
2019-03-23T18:07:04.961Z,81.10
2019-03-23T18:09:33.992Z,81.60
2019-03-23T18:12:02.271Z,82.52
2019-03-23T18:14:30.533Z,81.43
2019-03-23T18:16:59.382Z,82.34
2019-03-23T18:19:27.643Z,81.73
2019-03-23T18:21:56.845Z,82.53
2019-03-23T18:24:25.099Z,82.97
2019-03-23T18:26:53.945Z,83.09
2019-03-23T18:29:22.201Z,83.68
2019-03-23T18:31:50.488Z,83.72
2019-03-23T18:34:19.315Z,83.77
2019-03-23T18:36:47.604Z,83.93
2019-03-23T18:39:15.861Z,84.27
2019-03-23T18:41:44.914Z,84.16
2019-03-23T18:44:16.441Z,83.60
2019-03-23T18:46:43.163Z,83.51
2019-03-23T18:49:11.423Z,84.80
2019-03-23T18:51:39.712Z,85.27
2019-03-23T18:54:08.533Z,85.02
2019-03-23T18:56:37.580Z,85.41
2019-03-23T18:59:05.840Z,84.90
2019-03-23T19:01:34.118Z,85.19
2019-03-23T19:04:02.374Z,85.70
2019-03-23T19:06:30.655Z,85.75
2019-03-23T19:08:58.915Z,85.63
2019-03-23T19:11:27.184Z,85.44
2019-03-23T19:13:55.437Z,85.41
2019-03-23T19:16:23.718Z,85.61
2019-03-23T19:18:52.548Z,85.63
2019-03-23T19:21:20.813Z,85.32
2019-03-23T19:23:49.962Z,85.67
2019-03-23T19:26:18.215Z,86.42
2019-03-23T19:28:46.486Z,85.89
2019-03-23T19:31:15.320Z,85.76
2019-03-23T19:33:44.268Z,85.94
2019-03-23T19:36:12.520Z,86.34
2019-03-23T19:38:41.372Z,86.19
2019-03-23T19:41:09.630Z,85.61
2019-03-23T19:43:48.355Z,85.85
2019-03-23T19:46:08.664Z,86.37
2019-03-23T19:48:36.944Z,85.84
2019-03-23T19:51:05.198Z,85.96
2019-03-23T19:53:33.478Z,85.66
2019-03-23T19:56:01.738Z,85.87
2019-03-23T19:58:30.018Z,85.73
2019-03-23T20:00:58.277Z,85.87
2019-03-23T20:03:27.226Z,85.00
2019-03-23T20:05:56.254Z,85.27
2019-03-23T20:08:25.603Z,84.96
2019-03-23T20:10:54.067Z,85.17
2019-03-23T20:13:22.634Z,85.19
2019-03-23T20:15:50.888Z,85.65
2019-03-23T20:18:19.172Z,85.28
2019-03-23T20:20:47.425Z,85.49
2019-03-23T20:23:15.710Z,85.05
2019-03-23T20:25:44.735Z,85.29
2019-03-23T20:28:13.019Z,85.26
2019-03-23T20:30:41.286Z,84.03
2019-03-23T20:33:19.109Z,83.86
2019-03-23T20:35:39.530Z,83.03
2019-03-23T20:38:07.823Z,83.65
2019-03-23T20:40:36.071Z,82.80
2019-03-23T20:43:04.352Z,82.03
2019-03-23T20:45:32.613Z,81.79
2019-03-23T20:48:00.910Z,82.40
2019-03-23T20:50:29.148Z,82.36
2019-03-23T20:52:57.428Z,82.29
2019-03-23T20:55:27.877Z,82.29
2019-03-23T20:57:55.590Z,82.39
2019-03-23T21:00:24.628Z,81.46
2019-03-23T21:02:52.936Z,81.30
2019-03-23T21:05:21.162Z,81.39
2019-03-23T21:07:49.433Z,81.21
2019-03-23T21:10:17.685Z,81.49
2019-03-23T21:12:46.705Z,81.21
2019-03-23T21:15:14.956Z,81.12
2019-03-23T21:17:51.085Z,81.16
2019-03-23T21:20:13.220Z,80.72
2019-03-23T21:22:41.502Z,81.03
2019-03-23T21:25:09.749Z,80.31
2019-03-23T21:27:38.007Z,78.21
2019-03-23T21:30:12.248Z,78.65
2019-03-23T21:32:41.174Z,77.94
2019-03-23T21:35:09.457Z,77.71
2019-03-23T21:37:37.710Z,78.55
2019-03-23T21:40:06.261Z,78.66
2019-03-23T21:42:34.509Z,78.14
2019-03-23T21:45:02.784Z,78.86
2019-03-23T21:47:31.032Z,79.85
2019-03-23T21:49:59.305Z,79.92
2019-03-23T21:52:27.561Z,79.44
2019-03-23T21:54:55.828Z,79.77
2019-03-23T21:57:24.079Z,79.51
2019-03-23T21:59:52.369Z,79.47
2019-03-23T22:02:20.620Z,79.66
2019-03-23T22:04:49.462Z,79.52
2019-03-23T22:07:17.707Z,79.74
2019-03-23T22:09:46.001Z,80.30
2019-03-23T22:12:14.726Z,80.38
2019-03-23T22:14:43.009Z,80.71
2019-03-23T22:17:11.263Z,81.15
2019-03-23T22:19:39.537Z,81.53
2019-03-23T22:22:07.791Z,81.67
2019-03-23T22:24:36.315Z,81.11
2019-03-23T22:27:04.567Z,81.31
2019-03-23T22:29:32.843Z,80.94
2019-03-23T22:32:01.839Z,81.09
2019-03-23T22:34:30.114Z,80.91
2019-03-23T22:36:58.365Z,81.03
2019-03-23T22:39:26.641Z,81.26
2019-03-23T22:41:54.900Z,81.67
2019-03-23T22:44:23.188Z,82.39
2019-03-23T22:46:52.004Z,82.29
2019-03-23T22:49:20.285Z,82.02
2019-03-23T22:51:49.078Z,82.28
2019-03-23T22:54:17.347Z,82.27
2019-03-23T22:56:45.595Z,82.37
2019-03-23T22:59:15.407Z,82.06
2019-03-23T23:01:43.830Z,81.85
2019-03-23T23:04:12.105Z,81.99
2019-03-23T23:06:40.358Z,81.54
2019-03-23T23:09:09.599Z,80.21
2019-03-23T23:11:37.850Z,80.43
2019-03-23T23:14:06.689Z,79.86
2019-03-23T23:16:34.937Z,79.49
2019-03-23T23:19:03.208Z,79.50
2019-03-23T23:21:31.787Z,78.95
2019-03-23T23:24:00.052Z,78.13
2019-03-23T23:26:28.307Z,78.67
2019-03-23T23:28:56.581Z,79.03
2019-03-23T23:31:24.832Z,77.70
2019-03-23T23:33:53.109Z,78.32
2019-03-23T23:36:22.706Z,78.77
2019-03-23T23:38:52.551Z,78.79
2019-03-23T23:41:21.006Z,78.65
2019-03-23T23:43:49.853Z,79.60
2019-03-23T23:46:18.112Z,79.28
2019-03-23T23:48:51.180Z,79.77
2019-03-23T23:51:16.360Z,78.15
2019-03-23T23:53:45.025Z,78.58
2019-03-23T23:56:13.302Z,80.50
2019-03-23T23:58:41.555Z,79.49
